Time;durP1;ratioP1;P1;durP2;ratioP2;P2;SDS_P1;SDS_P2;PMS_P1;PMS_P2;Temp;Humidity;BMP_temperature;BMP_pressure;BME280_temperature;BME280_humidity;BME280_pressure;Samples;Min_cycle;Max_cycle;Signal;HPM_P1;HPM_P2
2023/05/10 00:03:04;;;;;;;8.25;5.28;;;;;;;-146.18;100.00;67994.34;10183636;28;20516;-70
2023/05/10 00:08:01;;;;;;;6.50;5.20;;;;;;;-146.18;100.00;67994.34;10183592;28;20053;-70
2023/05/10 00:12:58;;;;;;;6.78;5.18;;;;;;;-146.18;100.00;67994.34;10191129;28;20058;-70
2023/05/10 00:17:54;;;;;;;6.10;5.30;;;;;;;-146.18;100.00;67994.34;10183818;28;20057;-70
2023/05/10 00:22:51;;;;;;;8.15;5.20;;;;;;;-146.18;100.00;67994.34;10187073;28;20718;-69
2023/05/10 00:27:49;;;;;;;7.38;5.50;;;;;;;-146.18;100.00;67994.34;10186827;28;20045;-69
2023/05/10 00:32:47;;;;;;;7.32;5.20;;;;;;;-146.18;100.00;67994.34;10175252;28;20643;-69
2023/05/10 00:37:44;;;;;;;6.20;5.20;;;;;;;-146.18;100.00;67994.34;10171091;28;20046;-69
2023/05/10 00:42:41;;;;;;;8.80;5.53;;;;;;;-146.18;100.00;67994.34;10181147;28;20661;-72
2023/05/10 00:47:38;;;;;;;7.15;5.13;;;;;;;-146.18;100.00;67994.34;10182449;28;20511;-69
2023/05/10 00:52:35;;;;;;;11.02;5.43;;;;;;;-146.18;100.00;67994.34;10176322;28;20595;-70
2023/05/10 00:57:32;;;;;;;8.27;5.22;;;;;;;-146.18;100.00;67994.34;10166833;28;20050;-70
2023/05/10 01:02:28;;;;;;;6.47;5.18;;;;;;;-146.18;100.00;67994.34;10180873;28;20100;-70
2023/05/10 01:07:25;;;;;;;6.82;4.95;;;;;;;-146.18;100.00;67994.34;10183087;28;20496;-69
2023/05/10 01:12:22;;;;;;;7.18;5.03;;;;;;;-146.18;100.00;67994.34;10177281;28;20048;-69
2023/05/10 01:17:19;;;;;;;7.55;6.25;;;;;;;-146.18;100.00;67994.34;10185208;28;20061;-69
2023/05/10 01:22:45;;;;;;;8.10;5.40;;;;;;;-146.18;100.00;67994.34;10184857;28;20049;-69
2023/05/10 01:27:50;;;;;;;6.00;5.40;;;;;;;-146.18;100.00;67994.34;10162048;28;20063;-69
2023/05/10 01:32:59;;;;;;;8.63;5.03;;;;;;;-146.18;100.00;67994.34;10177775;28;20559;-70
2023/05/10 01:37:56;;;;;;;10.27;5.43;;;;;;;-146.18;100.00;67994.34;10181276;28;20046;-72
2023/05/10 01:42:56;;;;;;;10.50;5.35;;;;;;;-146.18;100.00;67994.34;10185967;28;20064;-70
2023/05/10 01:47:59;;;;;;;8.63;5.65;;;;;;;-146.18;100.00;67994.34;10176965;28;20054;-70
2023/05/10 01:52:59;;;;;;;5.57;4.95;;;;;;;-146.18;100.00;67994.34;10180037;28;20108;-70
2023/05/10 01:58:05;;;;;;;8.68;5.00;;;;;;;-146.18;100.00;67994.34;10179499;28;20050;-71
2023/05/10 02:03:07;;;;;;;8.52;5.55;;;;;;;-146.18;100.00;67994.34;10184267;28;20071;-72
2023/05/10 02:08:06;;;;;;;8.82;5.93;;;;;;;-146.18;100.00;67994.34;10185537;28;20052;-70
2023/05/10 02:13:03;;;;;;;9.65;5.40;;;;;;;-146.18;100.00;67994.34;10177039;28;20049;-69
2023/05/10 02:18:02;;;;;;;7.60;5.53;;;;;;;-146.18;100.00;67994.34;10180514;28;20116;-70
2023/05/10 02:23:00;;;;;;;7.10;5.32;;;;;;;-146.18;100.00;67994.34;10181485;28;20050;-70
2023/05/10 02:27:59;;;;;;;9.20;5.70;;;;;;;-146.18;100.00;67994.34;10182740;28;20523;-73
2023/05/10 02:32:57;;;;;;;6.43;5.55;;;;;;;-146.18;100.00;67994.34;10179485;28;20538;-71
2023/05/10 02:37:54;;;;;;;7.88;5.72;;;;;;;-146.18;100.00;67994.34;10181148;28;20060;-71
2023/05/10 02:42:54;;;;;;;7.45;5.65;;;;;;;-146.18;100.00;67994.34;10190919;28;20132;-72
2023/05/10 02:47:51;;;;;;;7.13;5.47;;;;;;;-146.18;100.00;67994.34;10180570;28;20471;-73
2023/05/10 02:52:54;;;;;;;7.80;5.72;;;;;;;-146.18;100.00;67994.34;10169096;28;20096;-73
2023/05/10 02:57:59;;;;;;;6.38;5.78;;;;;;;-146.18;100.00;67994.34;10180878;28;20096;-73
2023/05/10 03:02:56;;;;;;;7.00;5.47;;;;;;;-146.18;100.00;67994.34;10185344;28;20594;-70
2023/05/10 03:07:55;;;;;;;9.80;6.05;;;;;;;-146.18;100.00;67994.34;10187082;28;20050;-70
2023/05/10 03:13:28;;;;;;;10.20;5.53;;;;;;;-146.18;100.00;67994.34;10181945;28;20053;-70
2023/05/10 03:18:27;;;;;;;7.28;6.30;;;;;;;-146.18;100.00;67994.34;10208220;28;20069;-69
2023/05/10 03:23:33;;;;;;;7.47;5.40;;;;;;;-146.18;100.00;67994.34;10237740;28;20592;-69
2023/05/10 03:28:31;;;;;;;7.80;5.65;;;;;;;-146.18;100.00;67994.34;10211270;28;20053;-70
2023/05/10 03:46:16;;;;;;;6.18;5.35;;;;;;;-146.18;100.00;67994.34;10231826;28;20050;-77
2023/05/10 03:51:14;;;;;;;6.80;5.82;;;;;;;-146.18;100.00;67994.34;10225000;28;20199;-75
2023/05/10 03:56:11;;;;;;;7.22;5.82;;;;;;;-146.18;100.00;67994.34;10197865;28;20558;-75
2023/05/10 04:01:07;;;;;;;6.07;5.30;;;;;;;-146.18;100.00;67994.34;10233031;28;20045;-74
2023/05/10 04:06:05;;;;;;;10.70;6.40;;;;;;;-146.18;100.00;67994.34;10212466;28;20132;-76
2023/05/10 04:11:12;;;;;;;6.47;5.70;;;;;;;-146.18;100.00;67994.34;10225123;28;20050;-75
2023/05/10 04:16:09;;;;;;;7.32;6.25;;;;;;;-146.18;100.00;67994.34;10224195;28;20111;-74
2023/05/10 04:21:12;;;;;;;7.05;5.82;;;;;;;-146.18;100.00;67994.34;10213696;28;20105;-74
2023/05/10 04:26:08;;;;;;;7.43;6.15;;;;;;;-146.18;100.00;67994.34;10207788;28;20042;-75
2023/05/10 04:31:07;;;;;;;7.00;6.30;;;;;;;-146.18;100.00;67994.34;10206111;28;20077;-76
2023/05/10 04:36:10;;;;;;;13.30;6.45;;;;;;;-146.18;100.00;67994.34;10203968;28;20057;-77
2023/05/10 04:41:11;;;;;;;7.55;5.72;;;;;;;-146.18;100.00;67994.34;10194839;28;20117;-74
2023/05/10 04:46:07;;;;;;;6.63;6.03;;;;;;;-146.18;100.00;67994.34;10200299;28;20049;-74
2023/05/10 04:51:06;;;;;;;7.13;6.25;;;;;;;-146.18;100.00;67994.34;10216023;28;20057;-74
2023/05/10 04:56:02;;;;;;;6.85;6.15;;;;;;;-146.18;100.00;67994.34;10221535;28;20087;-74
2023/05/10 05:01:07;;;;;;;9.40;6.47;;;;;;;-146.18;100.00;67994.34;10228263;28;20490;-74
2023/05/10 05:06:03;;;;;;;7.90;6.40;;;;;;;-146.18;100.00;67994.34;10209701;28;20129;-75
2023/05/10 05:11:00;;;;;;;10.20;6.57;;;;;;;-146.18;100.00;67994.34;10228347;28;20140;-74
2023/05/10 05:15:56;;;;;;;12.50;6.93;;;;;;;-146.18;100.00;67994.34;10220305;28;20053;-74
2023/05/10 05:20:53;;;;;;;7.72;6.60;;;;;;;-146.18;100.00;67994.34;10224626;28;20466;-75
2023/05/10 05:25:51;;;;;;;7.13;6.43;;;;;;;-146.18;100.00;67994.34;10228127;28;20092;-75
2023/05/10 05:30:48;;;;;;;7.95;6.53;;;;;;;-146.18;100.00;67994.34;10227462;28;20049;-74
2023/05/10 05:35:50;;;;;;;11.40;6.80;;;;;;;-146.18;100.00;67994.34;10223147;28;20049;-74
2023/05/10 05:40:46;;;;;;;8.50;7.30;;;;;;;-146.18;100.00;67994.34;10199846;28;20083;-75
2023/05/10 05:45:43;;;;;;;8.77;7.82;;;;;;;-146.18;100.00;67994.34;10222587;28;20448;-75
2023/05/10 05:50:39;;;;;;;10.10;7.50;;;;;;;-146.18;100.00;67994.34;10222264;28;20132;-74
2023/05/10 05:55:37;;;;;;;9.05;7.65;;;;;;;-146.18;100.00;67994.34;10231863;28;20140;-75
2023/05/10 06:00:34;;;;;;;7.78;6.97;;;;;;;-146.18;100.00;67994.34;10218228;28;20084;-75
2023/05/10 06:05:30;;;;;;;9.60;6.97;;;;;;;-146.18;100.00;67994.34;10226978;28;20053;-74
2023/05/10 06:10:26;;;;;;;8.15;7.35;;;;;;;-146.18;100.00;67994.34;10232780;28;20080;-75
2023/05/10 06:15:23;;;;;;;8.02;7.22;;;;;;;-146.18;100.00;67994.34;10214084;28;20049;-75
2023/05/10 06:20:19;;;;;;;9.40;7.57;;;;;;;-146.18;100.00;67994.34;10233820;28;20555;-75
2023/05/10 06:25:17;;;;;;;8.05;7.25;;;;;;;-146.18;100.00;67994.34;10232256;28;20073;-75
2023/05/10 06:30:15;;;;;;;8.25;7.55;;;;;;;-146.18;100.00;67994.34;10223497;28;20491;-75
2023/05/10 06:35:11;;;;;;;8.18;7.40;;;;;;;-146.18;100.00;67994.34;10225761;28;20059;-74
2023/05/10 06:40:09;;;;;;;11.50;8.50;;;;;;;-146.18;100.00;67994.34;10227689;28;20085;-75
2023/05/10 06:45:06;;;;;;;8.10;7.35;;;;;;;-146.18;100.00;67994.34;10225734;28;20052;-75
2023/05/10 06:50:03;;;;;;;8.68;7.50;;;;;;;-146.18;100.00;67994.34;10229241;28;20056;-75
2023/05/10 06:55:00;;;;;;;8.57;7.40;;;;;;;-146.18;100.00;67994.34;10231276;28;20613;-75
2023/05/10 06:59:56;;;;;;;8.98;6.78;;;;;;;-146.18;100.00;67994.34;10230567;28;20056;-74
2023/05/10 07:04:53;;;;;;;8.98;8.10;;;;;;;-146.18;100.00;67994.34;10231786;28;20049;-75
2023/05/10 07:09:51;;;;;;;9.48;8.02;;;;;;;-146.18;100.00;67994.34;10229403;28;20458;-74
2023/05/10 07:14:47;;;;;;;8.63;7.80;;;;;;;-146.18;100.00;67994.34;10228536;28;20127;-75
2023/05/10 07:19:44;;;;;;;9.15;8.25;;;;;;;-146.18;100.00;67994.34;10212043;28;20076;-75
2023/05/10 07:24:40;;;;;;;8.30;7.60;;;;;;;-146.18;100.00;67994.34;10231375;28;20053;-75
2023/05/10 07:29:37;;;;;;;8.80;7.88;;;;;;;-146.18;100.00;67994.34;10227201;28;20045;-75
2023/05/10 07:34:36;;;;;;;9.40;8.60;;;;;;;-146.18;100.00;67994.34;10229682;28;20515;-75
2023/05/10 07:39:33;;;;;;;9.30;8.40;;;;;;;-146.18;100.00;67994.34;10210600;28;20052;-75
2023/05/10 07:44:29;;;;;;;9.48;8.48;;;;;;;-146.18;100.00;67994.34;10225795;28;20057;-75
2023/05/10 07:49:25;;;;;;;10.05;8.45;;;;;;;-146.18;100.00;67994.34;10231397;28;20096;-75
2023/05/10 07:54:22;;;;;;;11.32;9.20;;;;;;;-146.18;100.00;67994.34;10228723;28;20526;-74
2023/05/10 07:59:19;;;;;;;9.27;8.48;;;;;;;-146.18;100.00;67994.34;10222322;28;20053;-75
2023/05/10 08:04:15;;;;;;;9.38;8.50;;;;;;;-146.18;100.00;67994.34;10223477;28;20466;-75
2023/05/10 08:09:13;;;;;;;9.20;8.40;;;;;;;-146.18;100.00;67994.34;10224984;28;20823;-75
2023/05/10 08:14:09;;;;;;;10.15;8.52;;;;;;;-146.18;100.00;67994.34;10222729;28;20080;-75
2023/05/10 08:19:06;;;;;;;15.52;8.90;;;;;;;-146.18;100.00;67994.34;10234031;28;20150;-74
2023/05/10 08:24:02;;;;;;;9.73;8.75;;;;;;;-146.18;100.00;67994.34;10220441;28;20053;-74
2023/05/10 08:28:59;;;;;;;9.68;8.77;;;;;;;-146.18;100.00;67994.34;10225311;28;20668;-75
2023/05/10 08:33:55;;;;;;;9.55;8.65;;;;;;;-146.18;100.00;67994.34;10223870;28;20408;-75
2023/05/10 08:38:52;;;;;;;10.02;8.30;;;;;;;-146.18;100.00;67994.34;10226841;28;20071;-75
2023/05/10 08:43:50;;;;;;;9.20;7.43;;;;;;;-146.18;100.00;67994.34;10228738;28;20404;-75
2023/05/10 08:48:50;;;;;;;10.88;8.05;;;;;;;-146.18;100.00;67994.34;10228167;28;20080;-75
2023/05/10 08:53:47;;;;;;;8.23;7.43;;;;;;;-146.18;100.00;67994.34;10222814;28;20527;-75
2023/05/10 08:58:44;;;;;;;8.32;7.53;;;;;;;-146.18;100.00;67994.34;10215962;28;20077;-75
2023/05/10 09:03:41;;;;;;;10.63;7.13;;;;;;;-146.18;100.00;67994.34;10220511;28;20136;-75
2023/05/10 09:08:37;;;;;;;8.50;7.70;;;;;;;-146.18;100.00;67994.34;10206002;28;20052;-76
2023/05/10 09:13:36;;;;;;;9.13;7.55;;;;;;;-146.18;100.00;67994.34;10227418;28;20198;-74
2023/05/10 09:18:32;;;;;;;10.63;7.82;;;;;;;-146.18;100.00;67994.34;10222641;28;20125;-75
2023/05/10 09:23:32;;;;;;;9.13;7.55;;;;;;;-146.18;100.00;67994.34;10224416;28;20141;-75
2023/05/10 09:28:31;;;;;;;9.13;7.80;;;;;;;-146.18;100.00;67994.34;10215345;28;20116;-75
2023/05/10 09:33:28;;;;;;;9.45;7.28;;;;;;;-146.18;100.00;67994.34;10225610;28;20061;-75
2023/05/10 09:38:25;;;;;;;8.18;7.47;;;;;;;-146.18;100.00;67994.34;10209452;28;20069;-75
2023/05/10 09:43:21;;;;;;;8.25;7.53;;;;;;;-146.18;100.00;67994.34;10225614;28;20099;-75
2023/05/10 09:48:18;;;;;;;9.20;7.47;;;;;;;-146.18;100.00;67994.34;10216057;28;20526;-75
2023/05/10 09:53:15;;;;;;;8.57;7.78;;;;;;;-146.18;100.00;67994.34;10223836;28;20136;-75
2023/05/10 09:58:13;;;;;;;11.45;7.82;;;;;;;-146.18;100.00;67994.34;10215144;28;20488;-75
2023/05/10 10:03:15;;;;;;;9.98;9.05;;;;;;;-146.18;100.00;67994.34;10219735;28;20058;-74
2023/05/10 10:08:12;;;;;;;10.55;9.55;;;;;;;-146.18;100.00;67994.34;10223401;28;20065;-75
2023/05/10 10:13:10;;;;;;;11.23;9.40;;;;;;;-146.18;100.00;67994.34;10225792;28;20132;-74
2023/05/10 10:18:11;;;;;;;10.43;9.52;;;;;;;-146.18;100.00;67994.34;10223038;28;20132;-74
2023/05/10 10:23:08;;;;;;;10.15;9.15;;;;;;;-146.18;100.00;67994.34;10225754;28;20069;-74
2023/05/10 10:28:51;;;;;;;12.32;10.63;;;;;;;-146.18;100.00;67994.34;10225095;28;20041;-74
2023/05/10 10:33:56;;;;;;;12.20;9.90;;;;;;;-146.18;100.00;67994.34;10192288;28;20179;-74
2023/05/10 10:39:01;;;;;;;14.13;12.15;;;;;;;-146.18;100.00;67994.34;10227429;28;20077;-74
2023/05/10 10:44:22;;;;;;;11.93;10.82;;;;;;;-146.18;100.00;67994.34;10220277;28;20064;-74
2023/05/10 10:49:19;;;;;;;14.13;11.45;;;;;;;-146.18;100.00;67994.34;10226700;28;20132;-74
2023/05/10 10:54:27;;;;;;;13.70;12.23;;;;;;;-146.18;100.00;67994.34;10209026;28;20053;-74
2023/05/10 10:59:27;;;;;;;12.07;10.88;;;;;;;-146.18;100.00;67994.34;10226020;28;20085;-74
2023/05/10 11:04:42;;;;;;;12.45;11.18;;;;;;;-146.18;100.00;67994.34;10221121;28;20562;-74
2023/05/10 11:09:43;;;;;;;13.00;11.48;;;;;;;-146.18;100.00;67994.34;10231219;28;20045;-74
2023/05/10 11:14:40;;;;;;;12.30;11.20;;;;;;;-146.18;100.00;67994.34;10223124;28;20850;-74
2023/05/10 11:19:38;;;;;;;13.43;12.18;;;;;;;-146.18;100.00;67994.34;10226648;28;20064;-74
2023/05/10 11:24:35;;;;;;;13.48;11.68;;;;;;;-146.18;100.00;67994.34;10234175;28;20132;-74
2023/05/10 11:29:32;;;;;;;11.98;10.88;;;;;;;-146.18;100.00;67994.34;10229909;28;20503;-75
2023/05/10 11:34:30;;;;;;;16.55;11.90;;;;;;;-146.18;100.00;67994.34;10223318;28;20049;-75
2023/05/10 11:39:28;;;;;;;13.15;11.88;;;;;;;-146.18;100.00;67994.34;10231731;28;20069;-74
2023/05/10 11:44:32;;;;;;;13.05;11.85;;;;;;;-146.18;100.00;67994.34;10226815;28;20525;-75
2023/05/10 11:49:28;;;;;;;14.05;12.73;;;;;;;-146.18;100.00;67994.34;10227645;28;20674;-75
2023/05/10 11:54:25;;;;;;;15.40;13.75;;;;;;;-146.18;100.00;67994.34;10225944;28;20054;-74
2023/05/10 11:59:21;;;;;;;13.43;12.15;;;;;;;-146.18;100.00;67994.34;10231207;28;20072;-75
2023/05/10 12:04:18;;;;;;;15.15;13.48;;;;;;;-146.18;100.00;67994.34;10208001;28;20502;-74
2023/05/10 12:09:15;;;;;;;13.73;12.23;;;;;;;-146.18;100.00;67994.34;10224684;28;20050;-74
2023/05/10 12:14:19;;;;;;;13.68;12.48;;;;;;;-146.18;100.00;67994.34;10228999;28;20053;-75
2023/05/10 12:19:22;;;;;;;14.70;13.20;;;;;;;-146.18;100.00;67994.34;10212022;28;20120;-74
2023/05/10 12:24:21;;;;;;;14.98;13.50;;;;;;;-146.18;100.00;67994.34;10225702;28;20514;-75
2023/05/10 12:29:18;;;;;;;15.77;14.10;;;;;;;-146.18;100.00;67994.34;10206982;28;20200;-74
2023/05/10 12:34:25;;;;;;;15.18;13.77;;;;;;;-146.18;100.00;67994.34;10225672;28;20045;-75
2023/05/10 12:39:22;;;;;;;13.25;12.05;;;;;;;-146.18;100.00;67994.34;10224861;28;20500;-75
2023/05/10 12:44:19;;;;;;;13.52;12.23;;;;;;;-146.18;100.00;67994.34;10229811;28;20049;-75
2023/05/10 12:49:16;;;;;;;15.77;14.25;;;;;;;-146.18;100.00;67994.34;10217835;28;20045;-75
2023/05/10 12:54:13;;;;;;;16.08;14.38;;;;;;;-146.18;100.00;67994.34;10225836;28;20060;-74
2023/05/10 12:59:09;;;;;;;14.40;13.10;;;;;;;-146.18;100.00;67994.34;10216534;28;20050;-75
2023/05/10 13:04:06;;;;;;;15.38;13.85;;;;;;;-146.18;100.00;67994.34;10216988;28;20123;-75
2023/05/10 13:09:02;;;;;;;12.15;11.05;;;;;;;-146.18;100.00;67994.34;10208219;28;20049;-74
2023/05/10 13:13:59;;;;;;;12.73;11.38;;;;;;;-146.18;100.00;67994.34;10215572;28;20049;-75
2023/05/10 13:18:55;;;;;;;13.73;12.27;;;;;;;-146.18;100.00;67994.34;10225603;28;20148;-74
2023/05/10 13:23:55;;;;;;;11.32;10.32;;;;;;;-146.18;100.00;67994.34;10222551;28;20061;-75
2023/05/10 13:28:51;;;;;;;11.57;10.57;;;;;;;-146.18;100.00;67994.34;10223994;28;20050;-75
2023/05/10 13:33:48;;;;;;;11.68;10.57;;;;;;;-146.18;100.00;67994.34;10228595;28;20119;-74
2023/05/10 13:38:45;;;;;;;11.43;10.40;;;;;;;-146.18;100.00;67994.34;10206505;28;20042;-74
2023/05/10 13:43:41;;;;;;;12.30;11.18;;;;;;;-146.18;100.00;67994.34;10225773;28;20104;-75
2023/05/10 13:48:38;;;;;;;11.98;10.55;;;;;;;-146.18;100.00;67994.34;10225690;28;20507;-74
2023/05/10 13:53:34;;;;;;;12.32;11.10;;;;;;;-146.18;100.00;67994.34;10202515;28;20046;-74
2023/05/10 13:58:31;;;;;;;13.23;12.05;;;;;;;-146.18;100.00;67994.34;10197271;28;20129;-74
2023/05/10 14:03:27;;;;;;;11.82;10.85;;;;;;;-146.18;100.00;67994.34;10200571;28;20058;-74
2023/05/10 14:08:24;;;;;;;11.43;10.43;;;;;;;-146.18;100.00;67994.34;10219729;28;20470;-75
2023/05/10 14:13:21;;;;;;;12.32;11.05;;;;;;;-146.18;100.00;67994.34;10221878;28;20048;-74
2023/05/10 14:18:17;;;;;;;11.88;10.73;;;;;;;-146.18;100.00;67994.34;10230556;28;20071;-75
2023/05/10 14:23:14;;;;;;;12.32;11.23;;;;;;;-146.18;100.00;67994.34;10236018;28;20046;-75
2023/05/10 14:28:11;;;;;;;11.73;10.82;;;;;;;-146.18;100.00;67994.34;10233215;28;20080;-75
2023/05/10 14:33:08;;;;;;;11.35;10.23;;;;;;;-146.18;100.00;67994.34;10226804;28;20069;-75
2023/05/10 14:38:05;;;;;;;11.35;10.45;;;;;;;-146.18;100.00;67994.34;10224294;28;20065;-75
2023/05/10 14:43:01;;;;;;;10.68;9.70;;;;;;;-146.18;100.00;67994.34;10226547;28;20056;-74
2023/05/10 14:47:58;;;;;;;10.52;9.52;;;;;;;-146.18;100.00;67994.34;10226969;28;20072;-74
2023/05/10 14:52:58;;;;;;;9.63;8.88;;;;;;;-146.18;100.00;67994.34;10228618;28;20491;-75
2023/05/10 14:57:55;;;;;;;11.00;9.98;;;;;;;-146.18;100.00;67994.34;10215880;28;20069;-75
2023/05/10 15:02:51;;;;;;;10.77;9.60;;;;;;;-146.18;100.00;67994.34;10234378;28;20053;-74
2023/05/10 15:07:48;;;;;;;11.05;10.00;;;;;;;-146.18;100.00;67994.34;10211453;28;20052;-75
2023/05/10 15:12:45;;;;;;;10.85;9.90;;;;;;;-146.18;100.00;67994.34;10229143;28;20084;-75
2023/05/10 15:17:41;;;;;;;11.10;10.00;;;;;;;-146.18;100.00;67994.34;10229721;28;20124;-74
2023/05/10 15:22:38;;;;;;;10.68;9.57;;;;;;;-146.18;100.00;67994.34;10224338;28;20108;-75
2023/05/10 15:27:35;;;;;;;10.25;9.30;;;;;;;-146.18;100.00;67994.34;10228604;28;20045;-75
2023/05/10 15:32:31;;;;;;;10.82;9.73;;;;;;;-146.18;100.00;67994.34;10225550;28;20473;-75
2023/05/10 15:37:28;;;;;;;10.02;9.13;;;;;;;-146.18;100.00;67994.34;10225933;28;20060;-75
2023/05/10 15:42:24;;;;;;;10.32;9.43;;;;;;;-146.18;100.00;67994.34;10206889;28;20478;-74
2023/05/10 15:47:21;;;;;;;9.95;9.05;;;;;;;-146.18;100.00;67994.34;10225841;28;20053;-75
2023/05/10 15:52:18;;;;;;;9.90;9.00;;;;;;;-146.18;100.00;67994.34;10231779;28;20061;-73
2023/05/10 15:57:14;;;;;;;9.88;9.00;;;;;;;-146.18;100.00;67994.34;10211401;28;20511;-75
2023/05/10 16:02:11;;;;;;;9.43;8.63;;;;;;;-146.18;100.00;67994.34;10231406;28;20119;-75
2023/05/10 16:07:10;;;;;;;11.20;10.20;;;;;;;-146.18;100.00;67994.34;10221102;28;20760;-75
2023/05/10 16:12:07;;;;;;;10.18;9.15;;;;;;;-146.18;100.00;67994.34;10231004;28;20061;-74
2023/05/10 16:17:03;;;;;;;10.07;9.18;;;;;;;-146.18;100.00;67994.34;10212130;28;20399;-74
2023/05/10 16:22:02;;;;;;;10.90;10.00;;;;;;;-146.18;100.00;67994.34;10230403;28;20511;-74
2023/05/10 16:26:58;;;;;;;11.40;10.43;;;;;;;-146.18;100.00;67994.34;10219342;28;20076;-74
2023/05/10 16:31:55;;;;;;;13.07;11.88;;;;;;;-146.18;100.00;67994.34;10224275;28;20073;-74
2023/05/10 16:36:51;;;;;;;12.88;11.68;;;;;;;-146.18;100.00;67994.34;10217808;28;20060;-73
2023/05/10 16:41:49;;;;;;;12.00;11.00;;;;;;;-146.18;100.00;67994.34;10193444;28;20049;-76
2023/05/10 16:46:45;;;;;;;12.77;11.43;;;;;;;-146.18;100.00;67994.34;10225004;28;20144;-76
2023/05/10 16:51:42;;;;;;;13.30;12.10;;;;;;;-146.18;100.00;67994.34;10229309;28;20458;-75
2023/05/10 16:56:39;;;;;;;12.75;11.65;;;;;;;-146.18;100.00;67994.34;10220223;28;20499;-77
2023/05/10 17:01:35;;;;;;;12.48;11.27;;;;;;;-146.18;100.00;67994.34;10225024;28;20419;-77
2023/05/10 17:06:32;;;;;;;12.80;11.52;;;;;;;-146.18;100.00;67994.34;10222459;28;20046;-77
2023/05/10 17:11:28;;;;;;;12.05;10.85;;;;;;;-146.18;100.00;67994.34;10226780;28;20072;-77
2023/05/10 17:16:26;;;;;;;13.15;11.95;;;;;;;-146.18;100.00;67994.34;10205442;28;20454;-77
2023/05/10 17:21:22;;;;;;;11.75;10.73;;;;;;;-146.18;100.00;67994.34;10205631;28;20127;-77
2023/05/10 17:26:19;;;;;;;11.05;10.05;;;;;;;-146.18;100.00;67994.34;10221894;28;20051;-76
2023/05/10 17:31:15;;;;;;;11.82;10.65;;;;;;;-146.18;100.00;67994.34;10230451;28;20076;-76
2023/05/10 17:36:12;;;;;;;10.70;9.85;;;;;;;-146.18;100.00;67994.34;10232134;28;20052;-76
2023/05/10 17:41:09;;;;;;;11.90;10.75;;;;;;;-146.18;100.00;67994.34;10210902;28;20099;-77
2023/05/10 17:46:05;;;;;;;10.73;9.82;;;;;;;-146.18;100.00;67994.34;10218709;28;20045;-76
2023/05/10 17:51:03;;;;;;;11.23;10.23;;;;;;;-146.18;100.00;67994.34;10197957;28;20050;-74
2023/05/10 17:56:00;;;;;;;11.95;10.85;;;;;;;-146.18;100.00;67994.34;10222692;28;20045;-75
2023/05/10 18:00:57;;;;;;;12.48;11.45;;;;;;;-146.18;100.00;67994.34;10224022;28;20521;-76
2023/05/10 18:05:54;;;;;;;13.02;11.93;;;;;;;-146.18;100.00;67994.34;10211965;28;20073;-76
2023/05/10 18:10:53;;;;;;;12.68;11.50;;;;;;;-146.18;100.00;67994.34;10207751;28;20068;-76
2023/05/10 18:15:52;;;;;;;12.82;11.63;;;;;;;-146.18;100.00;67994.34;10204081;28;20073;-75
2023/05/10 18:20:55;;;;;;;12.45;11.30;;;;;;;-146.18;100.00;67994.34;10205870;28;20076;-75
2023/05/10 18:25:52;;;;;;;12.50;11.40;;;;;;;-146.18;100.00;67994.34;10216759;28;20611;-75
2023/05/10 18:30:49;;;;;;;13.23;11.93;;;;;;;-146.18;100.00;67994.34;10217204;28;20050;-75
2023/05/10 18:35:50;;;;;;;14.15;11.77;;;;;;;-146.18;100.00;67994.34;10205317;28;20478;-76
2023/05/10 18:40:46;;;;;;;15.25;13.82;;;;;;;-146.18;100.00;67994.34;10217192;28;20504;-76
2023/05/10 18:45:46;;;;;;;14.50;12.90;;;;;;;-146.18;100.00;67994.34;10215132;28;20130;-76
2023/05/10 18:50:42;;;;;;;11.90;10.70;;;;;;;-146.18;100.00;67994.34;10218155;28;20049;-76
2023/05/10 18:55:39;;;;;;;12.25;11.05;;;;;;;-146.18;100.00;67994.34;10202825;28;20503;-76
2023/05/10 19:00:35;;;;;;;13.20;11.68;;;;;;;-146.18;100.00;67994.34;10215222;28;20475;-76
2023/05/10 19:05:32;;;;;;;13.52;12.13;;;;;;;-146.18;100.00;67994.34;10221983;28;20507;-77
2023/05/10 19:10:28;;;;;;;17.48;11.75;;;;;;;-146.18;100.00;67994.34;10217236;28;20058;-76
2023/05/10 19:15:25;;;;;;;14.02;12.57;;;;;;;-146.18;100.00;67994.34;10230568;28;20049;-76
2023/05/10 19:20:21;;;;;;;13.30;11.98;;;;;;;-146.18;100.00;67994.34;10219092;28;20056;-76
2023/05/10 19:25:19;;;;;;;12.40;11.20;;;;;;;-146.18;100.00;67994.34;10227752;28;20097;-75
2023/05/10 19:30:15;;;;;;;12.50;11.30;;;;;;;-146.18;100.00;67994.34;10232269;28;20041;-76
2023/05/10 19:35:12;;;;;;;12.07;11.07;;;;;;;-146.18;100.00;67994.34;10220547;28;20480;-76
2023/05/10 19:40:17;;;;;;;11.35;10.25;;;;;;;-146.18;100.00;67994.34;10228067;28;20558;-76
2023/05/10 19:45:14;;;;;;;11.23;10.13;;;;;;;-146.18;100.00;67994.34;10217757;28;20502;-76
2023/05/10 19:50:14;;;;;;;9.80;8.90;;;;;;;-146.18;100.00;67994.34;10218232;28;20040;-75
2023/05/10 19:55:23;;;;;;;11.23;10.32;;;;;;;-146.18;100.00;67994.34;10222260;28;20466;-76
2023/05/10 20:00:20;;;;;;;9.90;9.00;;;;;;;-146.18;100.00;67994.34;10221463;28;20056;-76
2023/05/10 20:05:16;;;;;;;10.40;9.50;;;;;;;-146.18;100.00;67994.34;10210214;28;20172;-76
2023/05/10 20:10:14;;;;;;;10.82;9.82;;;;;;;-146.18;100.00;67994.34;10201427;28;20049;-75
2023/05/10 20:15:11;;;;;;;11.90;10.80;;;;;;;-146.18;100.00;67994.34;10207414;28;20132;-70
2023/05/10 20:20:07;;;;;;;11.25;10.25;;;;;;;-146.18;100.00;67994.34;10228052;28;20144;-70
2023/05/10 20:25:04;;;;;;;11.43;10.43;;;;;;;-146.18;100.00;67994.34;10226857;28;20049;-70
2023/05/10 20:30:01;;;;;;;11.25;10.27;;;;;;;-146.18;100.00;67994.34;10228077;28;20069;-71
2023/05/10 20:34:57;;;;;;;12.25;11.13;;;;;;;-146.18;100.00;67994.34;10230041;28;20431;-69
2023/05/10 20:39:54;;;;;;;11.57;10.57;;;;;;;-146.18;100.00;67994.34;10218561;28;20073;-69
2023/05/10 20:44:51;;;;;;;12.13;11.02;;;;;;;-146.18;100.00;67994.34;10225230;28;20061;-70
2023/05/10 20:49:48;;;;;;;12.55;11.35;;;;;;;-146.18;100.00;67994.34;10223010;28;20566;-70
2023/05/10 20:54:44;;;;;;;13.52;12.23;;;;;;;-146.18;100.00;67994.34;10216317;28;20128;-70
2023/05/10 20:59:41;;;;;;;13.98;12.57;;;;;;;-146.18;100.00;67994.34;10225732;28;20064;-66
2023/05/10 21:04:38;;;;;;;13.38;12.07;;;;;;;-146.18;100.00;67994.34;10226511;28;20560;-70
2023/05/10 21:09:34;;;;;;;15.15;12.95;;;;;;;-146.18;100.00;67994.34;10219340;28;20041;-68
2023/05/10 21:14:31;;;;;;;14.88;13.32;;;;;;;-146.18;100.00;67994.34;10208072;28;20058;-69
2023/05/10 21:19:27;;;;;;;15.07;12.32;;;;;;;-146.18;100.00;67994.34;10228665;28;20454;-69
2023/05/10 21:24:24;;;;;;;15.40;13.18;;;;;;;-146.18;100.00;67994.34;10229454;28;20045;-69
2023/05/10 21:29:20;;;;;;;16.08;14.05;;;;;;;-146.18;100.00;67994.34;10223460;28;20052;-70
2023/05/10 21:34:17;;;;;;;17.15;13.85;;;;;;;-146.18;100.00;67994.34;10227244;28;20455;-70
2023/05/10 21:39:13;;;;;;;18.27;15.02;;;;;;;-146.18;100.00;67994.34;10230166;28;20041;-70
2023/05/10 21:44:12;;;;;;;20.63;16.70;;;;;;;-146.18;100.00;67994.34;10221908;28;20041;-70
2023/05/10 21:49:08;;;;;;;21.13;16.10;;;;;;;-146.18;100.00;67994.34;10231072;28;20045;-74
2023/05/10 21:54:05;;;;;;;19.83;16.52;;;;;;;-146.18;100.00;67994.34;10225592;28;20688;-74
2023/05/10 21:59:08;;;;;;;24.63;18.65;;;;;;;-146.18;100.00;67994.34;10225242;28;20052;-73
2023/05/10 22:04:05;;;;;;;21.75;16.08;;;;;;;-146.18;100.00;67994.34;10231451;28;20106;-74
2023/05/10 22:09:01;;;;;;;22.50;16.52;;;;;;;-146.18;100.00;67994.34;10223495;28;20104;-74
2023/05/10 22:13:58;;;;;;;23.77;17.50;;;;;;;-146.18;100.00;67994.34;10224754;28;20140;-74
2023/05/10 22:18:54;;;;;;;22.20;16.30;;;;;;;-146.18;100.00;67994.34;10229321;28;20052;-70